sensor_id;sensor_type;location;lat;lon;timestamp;temperature;humidity
16907;DHT22;8570;52.380;4.654;2023-03-01T00:00:10;1.90;99.90
16907;DHT22;8570;52.380;4.654;2023-03-01T00:05:13;1.80;99.90
16907;DHT22;8570;52.380;4.654;2023-03-01T00:10:15;1.80;99.90
16907;DHT22;8570;52.380;4.654;2023-03-01T00:15:17;1.70;99.90
16907;DHT22;8570;52.380;4.654;2023-03-01T00:20:20;1.70;99.90
16907;DHT22;8570;52.380;4.654;2023-03-01T00:25:22;1.70;99.90
16907;DHT22;8570;52.380;4.654;2023-03-01T00:30:24;1.60;99.90
16907;DHT22;8570;52.380;4.654;2023-03-01T00:35:27;1.60;99.90
16907;DHT22;8570;52.380;4.654;2023-03-01T00:40:32;1.60;99.90
16907;DHT22;8570;52.380;4.654;2023-03-01T00:45:34;1.50;99.90
16907;DHT22;8570;52.380;4.654;2023-03-01T00:50:37;1.50;99.90
16907;DHT22;8570;52.380;4.654;2023-03-01T00:55:39;1.50;99.90
16907;DHT22;8570;52.380;4.654;2023-03-01T01:00:40;1.40;99.90
16907;DHT22;8570;52.380;4.654;2023-03-01T01:05:44;1.50;99.90
16907;DHT22;8570;52.380;4.654;2023-03-01T01:10:46;1.40;99.90
16907;DHT22;8570;52.380;4.654;2023-03-01T01:15:48;1.40;99.90
16907;DHT22;8570;52.380;4.654;2023-03-01T01:20:52;1.40;99.90
16907;DHT22;8570;52.380;4.654;2023-03-01T01:25:53;1.40;99.90
16907;DHT22;8570;52.380;4.654;2023-03-01T01:30:55;1.30;99.90
16907;DHT22;8570;52.380;4.654;2023-03-01T01:35:59;1.30;99.90
16907;DHT22;8570;52.380;4.654;2023-03-01T01:41:01;1.30;99.90
16907;DHT22;8570;52.380;4.654;2023-03-01T01:46:04;1.30;99.90
16907;DHT22;8570;52.380;4.654;2023-03-01T01:51:12;1.30;99.90
16907;DHT22;8570;52.380;4.654;2023-03-01T01:56:14;1.30;99.90
16907;DHT22;8570;52.380;4.654;2023-03-01T02:01:17;1.20;99.90
16907;DHT22;8570;52.380;4.654;2023-03-01T02:06:24;1.20;99.90
16907;DHT22;8570;52.380;4.654;2023-03-01T02:11:30;1.20;99.90
16907;DHT22;8570;52.380;4.654;2023-03-01T02:16:32;1.20;99.90
16907;DHT22;8570;52.380;4.654;2023-03-01T02:21:44;1.20;99.90
16907;DHT22;8570;52.380;4.654;2023-03-01T02:26:53;1.10;99.90
16907;DHT22;8570;52.380;4.654;2023-03-01T02:32:00;1.10;99.90
16907;DHT22;8570;52.380;4.654;2023-03-01T02:37:07;1.10;99.90
16907;DHT22;8570;52.380;4.654;2023-03-01T02:42:17;1.10;99.90
16907;DHT22;8570;52.380;4.654;2023-03-01T02:47:23;1.00;99.90
16907;DHT22;8570;52.380;4.654;2023-03-01T02:52:40;1.00;99.90
16907;DHT22;8570;52.380;4.654;2023-03-01T02:57:46;1.00;99.90
16907;DHT22;8570;52.380;4.654;2023-03-01T03:02:53;1.00;99.90
16907;DHT22;8570;52.380;4.654;2023-03-01T03:07:58;0.90;99.90
16907;DHT22;8570;52.380;4.654;2023-03-01T03:13:03;0.90;99.90
16907;DHT22;8570;52.380;4.654;2023-03-01T03:18:09;0.90;99.90
16907;DHT22;8570;52.380;4.654;2023-03-01T03:23:11;0.90;99.90
16907;DHT22;8570;52.380;4.654;2023-03-01T03:28:13;0.80;99.90
16907;DHT22;8570;52.380;4.654;2023-03-01T03:33:18;0.80;99.90
16907;DHT22;8570;52.380;4.654;2023-03-01T03:38:20;0.80;99.90
16907;DHT22;8570;52.380;4.654;2023-03-01T03:43:23;0.80;99.90
16907;DHT22;8570;52.380;4.654;2023-03-01T03:48:26;0.70;99.90
16907;DHT22;8570;52.380;4.654;2023-03-01T03:53:29;0.70;99.90
16907;DHT22;8570;52.380;4.654;2023-03-01T03:58:31;0.60;99.90
16907;DHT22;8570;52.380;4.654;2023-03-01T04:03:34;0.60;99.90
16907;DHT22;8570;52.380;4.654;2023-03-01T04:08:36;0.60;99.90
16907;DHT22;8570;52.380;4.654;2023-03-01T04:13:38;0.50;99.90
16907;DHT22;8570;52.380;4.654;2023-03-01T04:18:41;0.50;99.90
16907;DHT22;8570;52.380;4.654;2023-03-01T04:23:43;0.50;99.90
16907;DHT22;8570;52.380;4.654;2023-03-01T04:28:45;0.40;99.90
16907;DHT22;8570;52.380;4.654;2023-03-01T04:33:52;0.40;99.90
16907;DHT22;8570;52.380;4.654;2023-03-01T04:38:55;0.40;99.90
16907;DHT22;8570;52.380;4.654;2023-03-01T04:43:57;0.30;99.90
16907;DHT22;8570;52.380;4.654;2023-03-01T04:49:01;0.30;99.90
16907;DHT22;8570;52.380;4.654;2023-03-01T04:54:03;0.20;99.90
16907;DHT22;8570;52.380;4.654;2023-03-01T04:59:09;0.20;99.90
16907;DHT22;8570;52.380;4.654;2023-03-01T05:04:14;0.20;99.90
16907;DHT22;8570;52.380;4.654;2023-03-01T05:09:16;0.20;99.90
16907;DHT22;8570;52.380;4.654;2023-03-01T05:14:18;0.20;99.90
16907;DHT22;8570;52.380;4.654;2023-03-01T05:19:21;0.20;99.90
16907;DHT22;8570;52.380;4.654;2023-03-01T05:24:26;0.10;99.90
16907;DHT22;8570;52.380;4.654;2023-03-01T05:29:30;0.10;99.90
16907;DHT22;8570;52.380;4.654;2023-03-01T05:34:36;0.10;99.90
16907;DHT22;8570;52.380;4.654;2023-03-01T05:39:39;0.10;99.90
16907;DHT22;8570;52.380;4.654;2023-03-01T05:44:42;0.10;99.90
16907;DHT22;8570;52.380;4.654;2023-03-01T05:49:45;0.10;99.90
16907;DHT22;8570;52.380;4.654;2023-03-01T05:54:47;0.10;99.90
16907;DHT22;8570;52.380;4.654;2023-03-01T05:59:49;0.10;99.90
16907;DHT22;8570;52.380;4.654;2023-03-01T06:04:52;0.10;99.90
16907;DHT22;8570;52.380;4.654;2023-03-01T06:09:54;0.10;99.90
16907;DHT22;8570;52.380;4.654;2023-03-01T06:14:55;0.10;99.90
16907;DHT22;8570;52.380;4.654;2023-03-01T06:19:59;0.10;99.90
16907;DHT22;8570;52.380;4.654;2023-03-01T06:25:01;0.10;99.90
16907;DHT22;8570;52.380;4.654;2023-03-01T06:30:04;0.10;99.90
16907;DHT22;8570;52.380;4.654;2023-03-01T06:35:08;0.10;99.90
16907;DHT22;8570;52.380;4.654;2023-03-01T06:40:11;0.10;99.90
16907;DHT22;8570;52.380;4.654;2023-03-01T06:45:14;0.10;99.90
16907;DHT22;8570;52.380;4.654;2023-03-01T06:50:18;0.10;99.90
16907;DHT22;8570;52.380;4.654;2023-03-01T06:55:20;0.10;99.90
16907;DHT22;8570;52.380;4.654;2023-03-01T07:00:22;0.10;99.90
16907;DHT22;8570;52.380;4.654;2023-03-01T07:05:26;0.10;99.90
16907;DHT22;8570;52.380;4.654;2023-03-01T07:10:28;0.20;99.90
16907;DHT22;8570;52.380;4.654;2023-03-01T07:15:30;0.20;99.90
16907;DHT22;8570;52.380;4.654;2023-03-01T07:20:34;0.20;99.90
16907;DHT22;8570;52.380;4.654;2023-03-01T07:25:36;0.20;99.90
16907;DHT22;8570;52.380;4.654;2023-03-01T07:30:38;0.20;99.90
16907;DHT22;8570;52.380;4.654;2023-03-01T07:35:42;0.30;99.90
16907;DHT22;8570;52.380;4.654;2023-03-01T07:40:44;0.30;99.90
16907;DHT22;8570;52.380;4.654;2023-03-01T07:45:45;0.40;99.90
16907;DHT22;8570;52.380;4.654;2023-03-01T07:50:49;0.50;99.90
16907;DHT22;8570;52.380;4.654;2023-03-01T07:56:00;0.60;99.90
16907;DHT22;8570;52.380;4.654;2023-03-01T08:01:02;0.60;99.90
16907;DHT22;8570;52.380;4.654;2023-03-01T08:06:08;0.70;99.90
16907;DHT22;8570;52.380;4.654;2023-03-01T08:11:11;0.80;99.90
16907;DHT22;8570;52.380;4.654;2023-03-01T08:16:14;0.90;99.90
16907;DHT22;8570;52.380;4.654;2023-03-01T08:21:18;1.00;99.90
16907;DHT22;8570;52.380;4.654;2023-03-01T08:26:21;1.10;99.90
16907;DHT22;8570;52.380;4.654;2023-03-01T08:31:25;1.20;99.90
16907;DHT22;8570;52.380;4.654;2023-03-01T08:36:32;1.40;99.90
16907;DHT22;8570;52.380;4.654;2023-03-01T08:41:34;1.50;99.90
16907;DHT22;8570;52.380;4.654;2023-03-01T08:46:37;1.70;99.90
16907;DHT22;8570;52.380;4.654;2023-03-01T08:51:41;1.80;99.90
16907;DHT22;8570;52.380;4.654;2023-03-01T08:56:44;2.00;99.90
16907;DHT22;8570;52.380;4.654;2023-03-01T09:01:46;2.10;99.90
16907;DHT22;8570;52.380;4.654;2023-03-01T09:06:49;2.20;99.90
16907;DHT22;8570;52.380;4.654;2023-03-01T09:11:51;2.30;99.90
16907;DHT22;8570;52.380;4.654;2023-03-01T09:16:53;2.40;99.90
16907;DHT22;8570;52.380;4.654;2023-03-01T09:21:56;2.50;99.90
16907;DHT22;8570;52.380;4.654;2023-03-01T09:26:58;2.70;99.90
16907;DHT22;8570;52.380;4.654;2023-03-01T09:32:01;2.80;99.90
16907;DHT22;8570;52.380;4.654;2023-03-01T09:37:04;2.90;99.90
16907;DHT22;8570;52.380;4.654;2023-03-01T09:42:11;3.00;99.90
16907;DHT22;8570;52.380;4.654;2023-03-01T09:47:17;3.10;99.90
16907;DHT22;8570;52.380;4.654;2023-03-01T09:52:26;3.20;99.90
16907;DHT22;8570;52.380;4.654;2023-03-01T09:57:36;3.40;99.90
16907;DHT22;8570;52.380;4.654;2023-03-01T10:02:42;3.50;99.90
16907;DHT22;8570;52.380;4.654;2023-03-01T10:07:52;3.70;99.90
16907;DHT22;8570;52.380;4.654;2023-03-01T10:12:57;4.10;99.90
16907;DHT22;8570;52.380;4.654;2023-03-01T10:18:04;4.80;99.90
16907;DHT22;8570;52.380;4.654;2023-03-01T10:23:10;5.50;99.90
16907;DHT22;8570;52.380;4.654;2023-03-01T10:28:17;6.10;99.90
16907;DHT22;8570;52.380;4.654;2023-03-01T10:33:22;6.60;99.90
16907;DHT22;8570;52.380;4.654;2023-03-01T10:38:26;7.10;99.90
16907;DHT22;8570;52.380;4.654;2023-03-01T10:43:43;7.50;99.90
16907;DHT22;8570;52.380;4.654;2023-03-01T10:48:45;8.00;99.90
16907;DHT22;8570;52.380;4.654;2023-03-01T10:53:49;8.40;99.90
16907;DHT22;8570;52.380;4.654;2023-03-01T10:58:59;8.80;99.90
16907;DHT22;8570;52.380;4.654;2023-03-01T11:04:10;9.10;99.90
16907;DHT22;8570;52.380;4.654;2023-03-01T11:09:17;9.40;99.90
16907;DHT22;8570;52.380;4.654;2023-03-01T11:14:22;9.70;99.90
16907;DHT22;8570;52.380;4.654;2023-03-01T11:24:31;10.20;99.90
16907;DHT22;8570;52.380;4.654;2023-03-01T11:29:37;10.50;99.90
16907;DHT22;8570;52.380;4.654;2023-03-01T11:34:43;10.60;99.90
16907;DHT22;8570;52.380;4.654;2023-03-01T11:39:53;10.80;99.90
16907;DHT22;8570;52.380;4.654;2023-03-01T11:45:08;11.00;99.90
16907;DHT22;8570;52.380;4.654;2023-03-01T11:50:28;11.30;99.90
16907;DHT22;8570;52.380;4.654;2023-03-01T11:55:52;11.50;99.90
16907;DHT22;8570;52.380;4.654;2023-03-01T12:01:15;11.60;99.90
16907;DHT22;8570;52.380;4.654;2023-03-01T12:06:29;11.70;99.90
16907;DHT22;8570;52.380;4.654;2023-03-01T12:11:56;11.80;99.90
16907;DHT22;8570;52.380;4.654;2023-03-01T12:23:00;11.90;99.90
16907;DHT22;8570;52.380;4.654;2023-03-01T12:33:47;12.10;99.90
16907;DHT22;8570;52.380;4.654;2023-03-01T12:38:59;12.20;99.90
16907;DHT22;8570;52.380;4.654;2023-03-01T12:44:15;12.30;99.90
16907;DHT22;8570;52.380;4.654;2023-03-01T12:49:25;12.40;99.90
16907;DHT22;8570;52.380;4.654;2023-03-01T12:54:30;12.40;99.90
16907;DHT22;8570;52.380;4.654;2023-03-01T12:59:37;12.30;99.80
16907;DHT22;8570;52.380;4.654;2023-03-01T13:04:56;12.40;99.90
16907;DHT22;8570;52.380;4.654;2023-03-01T13:10:11;12.40;98.70
16907;DHT22;8570;52.380;4.654;2023-03-01T13:15:31;12.40;98.60
16907;DHT22;8570;52.380;4.654;2023-03-01T13:20:46;12.40;97.70
16907;DHT22;8570;52.380;4.654;2023-03-01T13:26:11;12.30;97.10
16907;DHT22;8570;52.380;4.654;2023-03-01T13:42:43;12.20;96.40
16907;DHT22;8570;52.380;4.654;2023-03-01T13:47:47;12.00;96.40
16907;DHT22;8570;52.380;4.654;2023-03-01T13:52:54;11.80;96.00
16907;DHT22;8570;52.380;4.654;2023-03-01T13:58:01;11.70;96.20
16907;DHT22;8570;52.380;4.654;2023-03-01T14:03:10;11.50;96.20
16907;DHT22;8570;52.380;4.654;2023-03-01T14:08:23;11.30;96.20
16907;DHT22;8570;52.380;4.654;2023-03-01T14:13:35;11.20;96.00
16907;DHT22;8570;52.380;4.654;2023-03-01T14:18:49;11.00;96.00
16907;DHT22;8570;52.380;4.654;2023-03-01T14:23:55;10.90;96.40
16907;DHT22;8570;52.380;4.654;2023-03-01T14:28:58;10.70;96.20
16907;DHT22;8570;52.380;4.654;2023-03-01T14:33:59;10.50;96.10
16907;DHT22;8570;52.380;4.654;2023-03-01T14:39:16;10.30;96.30
16907;DHT22;8570;52.380;4.654;2023-03-01T14:44:22;10.00;96.40
16907;DHT22;8570;52.380;4.654;2023-03-01T14:49:28;9.70;96.70
16907;DHT22;8570;52.380;4.654;2023-03-01T14:54:40;9.40;96.80
16907;DHT22;8570;52.380;4.654;2023-03-01T14:59:43;9.20;96.80
16907;DHT22;8570;52.380;4.654;2023-03-01T15:04:47;9.00;96.90
16907;DHT22;8570;52.380;4.654;2023-03-01T15:09:51;8.80;97.50
16907;DHT22;8570;52.380;4.654;2023-03-01T15:14:54;8.60;97.60
16907;DHT22;8570;52.380;4.654;2023-03-01T15:19:56;8.50;97.70
16907;DHT22;8570;52.380;4.654;2023-03-01T15:24:59;8.50;97.90
16907;DHT22;8570;52.380;4.654;2023-03-01T15:30:03;8.40;97.70
16907;DHT22;8570;52.380;4.654;2023-03-01T15:35:33;8.30;97.80
16907;DHT22;8570;52.380;4.654;2023-03-01T15:40:49;8.10;97.60
16907;DHT22;8570;52.380;4.654;2023-03-01T15:45:56;8.00;97.90
16907;DHT22;8570;52.380;4.654;2023-03-01T15:50:59;7.90;97.90
16907;DHT22;8570;52.380;4.654;2023-03-01T15:56:03;7.80;97.90
16907;DHT22;8570;52.380;4.654;2023-03-01T16:01:11;7.70;97.90
16907;DHT22;8570;52.380;4.654;2023-03-01T16:06:14;7.60;97.70
16907;DHT22;8570;52.380;4.654;2023-03-01T16:11:18;7.50;97.30
16907;DHT22;8570;52.380;4.654;2023-03-01T16:16:20;7.40;97.50
16907;DHT22;8570;52.380;4.654;2023-03-01T16:21:24;7.30;97.60
16907;DHT22;8570;52.380;4.654;2023-03-01T16:26:28;7.20;97.80
16907;DHT22;8570;52.380;4.654;2023-03-01T16:31:29;7.10;97.90
16907;DHT22;8570;52.380;4.654;2023-03-01T16:36:31;7.00;98.10
16907;DHT22;8570;52.380;4.654;2023-03-01T16:41:35;7.00;98.60
16907;DHT22;8570;52.380;4.654;2023-03-01T16:46:36;6.90;98.40
16907;DHT22;8570;52.380;4.654;2023-03-01T16:51:38;6.80;98.50
16907;DHT22;8570;52.380;4.654;2023-03-01T16:56:41;6.70;98.70
16907;DHT22;8570;52.380;4.654;2023-03-01T17:01:43;6.70;98.90
16907;DHT22;8570;52.380;4.654;2023-03-01T17:06:46;6.60;99.00
16907;DHT22;8570;52.380;4.654;2023-03-01T17:11:50;6.50;99.20
16907;DHT22;8570;52.380;4.654;2023-03-01T17:16:52;6.40;99.30
16907;DHT22;8570;52.380;4.654;2023-03-01T17:21:54;6.40;99.60
16907;DHT22;8570;52.380;4.654;2023-03-01T17:26:57;6.20;99.40
16907;DHT22;8570;52.380;4.654;2023-03-01T17:31:59;6.20;99.90
16907;DHT22;8570;52.380;4.654;2023-03-01T17:37:01;6.10;99.90
16907;DHT22;8570;52.380;4.654;2023-03-01T17:42:05;6.00;99.90
16907;DHT22;8570;52.380;4.654;2023-03-01T17:47:06;5.90;99.90
16907;DHT22;8570;52.380;4.654;2023-03-01T17:52:08;5.80;99.90
16907;DHT22;8570;52.380;4.654;2023-03-01T17:57:11;5.80;99.90
16907;DHT22;8570;52.380;4.654;2023-03-01T18:02:13;5.70;99.90
16907;DHT22;8570;52.380;4.654;2023-03-01T18:07:16;5.60;99.90
16907;DHT22;8570;52.380;4.654;2023-03-01T18:12:19;5.50;99.90
16907;DHT22;8570;52.380;4.654;2023-03-01T18:17:21;5.50;99.90
16907;DHT22;8570;52.380;4.654;2023-03-01T18:22:25;5.50;99.90
16907;DHT22;8570;52.380;4.654;2023-03-01T18:27:28;5.40;99.90
16907;DHT22;8570;52.380;4.654;2023-03-01T18:32:30;5.30;99.90
16907;DHT22;8570;52.380;4.654;2023-03-01T18:37:32;5.20;99.90
16907;DHT22;8570;52.380;4.654;2023-03-01T18:42:35;5.20;99.90
16907;DHT22;8570;52.380;4.654;2023-03-01T18:47:37;5.10;99.90
16907;DHT22;8570;52.380;4.654;2023-03-01T18:52:39;5.00;99.90
16907;DHT22;8570;52.380;4.654;2023-03-01T18:57:42;4.90;99.90
16907;DHT22;8570;52.380;4.654;2023-03-01T19:02:44;4.80;99.90
16907;DHT22;8570;52.380;4.654;2023-03-01T19:07:46;4.70;99.90
16907;DHT22;8570;52.380;4.654;2023-03-01T19:12:50;4.70;99.90
16907;DHT22;8570;52.380;4.654;2023-03-01T19:17:51;4.60;99.90
16907;DHT22;8570;52.380;4.654;2023-03-01T19:22:53;4.60;99.90
16907;DHT22;8570;52.380;4.654;2023-03-01T19:27:57;4.50;99.90
16907;DHT22;8570;52.380;4.654;2023-03-01T19:32:58;4.40;99.90
16907;DHT22;8570;52.380;4.654;2023-03-01T19:38:00;4.40;99.90
16907;DHT22;8570;52.380;4.654;2023-03-01T19:43:03;4.30;99.90
16907;DHT22;8570;52.380;4.654;2023-03-01T19:48:06;4.20;99.90
16907;DHT22;8570;52.380;4.654;2023-03-01T19:53:07;4.20;99.90
16907;DHT22;8570;52.380;4.654;2023-03-01T19:58:11;4.10;99.90
16907;DHT22;8570;52.380;4.654;2023-03-01T20:03:13;4.10;99.90
16907;DHT22;8570;52.380;4.654;2023-03-01T20:08:15;4.00;99.90
16907;DHT22;8570;52.380;4.654;2023-03-01T20:13:18;4.00;99.90
16907;DHT22;8570;52.380;4.654;2023-03-01T20:18:21;4.00;99.90
16907;DHT22;8570;52.380;4.654;2023-03-01T20:23:22;3.90;99.90
16907;DHT22;8570;52.380;4.654;2023-03-01T20:28:26;3.90;99.90
16907;DHT22;8570;52.380;4.654;2023-03-01T20:33:28;3.90;99.90
16907;DHT22;8570;52.380;4.654;2023-03-01T20:38:29;3.80;99.90
16907;DHT22;8570;52.380;4.654;2023-03-01T20:43:33;3.80;99.90
16907;DHT22;8570;52.380;4.654;2023-03-01T20:48:36;3.70;99.90
16907;DHT22;8570;52.380;4.654;2023-03-01T20:53:37;3.70;99.90
16907;DHT22;8570;52.380;4.654;2023-03-01T20:58:41;3.70;99.90
16907;DHT22;8570;52.380;4.654;2023-03-01T21:03:43;3.60;99.90
16907;DHT22;8570;52.380;4.654;2023-03-01T21:08:45;3.60;99.90
16907;DHT22;8570;52.380;4.654;2023-03-01T21:13:49;3.50;99.90
16907;DHT22;8570;52.380;4.654;2023-03-01T21:18:50;3.50;99.90
16907;DHT22;8570;52.380;4.654;2023-03-01T21:23:53;3.40;99.90
16907;DHT22;8570;52.380;4.654;2023-03-01T21:28:58;3.40;99.90
16907;DHT22;8570;52.380;4.654;2023-03-01T21:34:02;3.30;99.90
16907;DHT22;8570;52.380;4.654;2023-03-01T21:39:05;3.30;99.90
16907;DHT22;8570;52.380;4.654;2023-03-01T21:44:08;3.20;99.90
16907;DHT22;8570;52.380;4.654;2023-03-01T21:54:13;3.20;99.90
16907;DHT22;8570;52.380;4.654;2023-03-01T21:59:19;3.20;99.90
16907;DHT22;8570;52.380;4.654;2023-03-01T22:04:22;3.10;99.90
16907;DHT22;8570;52.380;4.654;2023-03-01T22:09:24;3.10;99.90
16907;DHT22;8570;52.380;4.654;2023-03-01T22:14:29;3.00;99.90
16907;DHT22;8570;52.380;4.654;2023-03-01T22:19:31;3.00;99.90
16907;DHT22;8570;52.380;4.654;2023-03-01T22:24:33;3.00;99.90
16907;DHT22;8570;52.380;4.654;2023-03-01T22:29:36;3.00;99.90
16907;DHT22;8570;52.380;4.654;2023-03-01T22:34:38;2.90;99.90
16907;DHT22;8570;52.380;4.654;2023-03-01T22:39:40;2.90;99.90
16907;DHT22;8570;52.380;4.654;2023-03-01T22:44:43;2.90;99.90
16907;DHT22;8570;52.380;4.654;2023-03-01T22:49:45;2.90;99.90
16907;DHT22;8570;52.380;4.654;2023-03-01T22:54:47;2.90;99.90
16907;DHT22;8570;52.380;4.654;2023-03-01T22:59:50;2.80;99.90
16907;DHT22;8570;52.380;4.654;2023-03-01T23:04:52;2.80;99.90
16907;DHT22;8570;52.380;4.654;2023-03-01T23:09:54;2.80;99.90
16907;DHT22;8570;52.380;4.654;2023-03-01T23:15:03;2.80;99.90
16907;DHT22;8570;52.380;4.654;2023-03-01T23:20:06;2.70;99.90
16907;DHT22;8570;52.380;4.654;2023-03-01T23:25:10;2.70;99.90
16907;DHT22;8570;52.380;4.654;2023-03-01T23:30:14;2.60;99.90
16907;DHT22;8570;52.380;4.654;2023-03-01T23:35:16;2.60;99.90
16907;DHT22;8570;52.380;4.654;2023-03-01T23:40:18;2.60;99.90
16907;DHT22;8570;52.380;4.654;2023-03-01T23:45:22;2.60;99.90
16907;DHT22;8570;52.380;4.654;2023-03-01T23:50:24;2.60;99.90
16907;DHT22;8570;52.380;4.654;2023-03-01T23:55:26;2.60;99.90
